Time;durP1;ratioP1;P1;durP2;ratioP2;P2;SDS_P1;SDS_P2;PMS_P1;PMS_P2;Temp;Humidity;BMP_temperature;BMP_pressure;BME280_temperature;BME280_humidity;BME280_pressure;Samples;Min_cycle;Max_cycle;Signal;HPM_P1;HPM_P2
2021/06/02 00:02:13;;;;;;;;;0.00;0.00;;;;;21.21;47.59;100651.63;4956490;28;45473;-86
2021/06/02 00:04:49;;;;;;;;;0.00;0.00;;;;;21.38;47.60;100680.09;4943917;28;45494;-86
2021/06/02 00:07:15;;;;;;;;;0.00;0.00;;;;;21.41;47.82;100688.88;4956953;28;45608;-87
2021/06/02 00:09:41;;;;;;;;;1.50;1.00;;;;;21.09;47.95;100633.56;4934842;28;45535;-85
2021/06/02 00:12:08;;;;;;;;;0.25;0.25;;;;;21.48;47.78;100695.66;4959870;28;45593;-86
2021/06/02 00:14:34;;;;;;;;;0.00;0.00;;;;;21.40;47.84;100682.69;4939139;28;45623;-86
2021/06/02 00:16:59;;;;;;;;;0.00;0.00;;;;;21.49;48.12;100705.31;4965329;28;47076;-85
2021/06/02 00:19:25;;;;;;;;;0.50;0.00;;;;;21.16;47.97;100647.44;4932155;28;45544;-85
2021/06/02 00:21:50;;;;;;;;;0.00;0.00;;;;;21.37;47.62;100686.34;4986729;28;45341;-85
2021/06/02 00:24:16;;;;;;;;;0.00;0.00;;;;;20.95;47.83;100626.16;4938586;28;45640;-85
2021/06/02 00:26:41;;;;;;;;;0.00;0.00;;;;;21.45;47.93;100703.72;4958129;28;46960;-85
2021/06/02 00:29:08;;;;;;;;;0.00;0.00;;;;;21.18;48.21;100672.06;4953742;28;57581;-85
2021/06/02 00:31:34;;;;;;;;;0.00;0.00;;;;;20.80;48.40;100609.03;4974967;28;45638;-86
2021/06/02 00:34:03;;;;;;;;;0.00;0.00;;;;;21.00;48.18;100645.34;5010125;28;45574;-86
2021/06/02 00:36:28;;;;;;;;;0.00;0.00;;;;;20.93;48.33;100630.63;4978751;28;48413;-86
2021/06/02 00:38:53;;;;;;;;;0.00;0.00;;;;;21.22;47.99;100681.63;4968325;28;45497;-85
2021/06/02 00:41:20;;;;;;;;;0.00;0.00;;;;;21.14;48.30;100673.97;4967322;28;45445;-89
2021/06/02 00:43:47;;;;;;;;;0.00;0.00;;;;;21.08;48.63;100669.78;4951983;28;45471;-87
2021/06/02 00:46:12;;;;;;;;;0.75;0.00;;;;;20.56;48.57;100603.69;4958892;28;48533;-85
2021/06/02 00:48:38;;;;;;;;;0.00;0.00;;;;;20.53;48.07;100587.94;4970928;27;45482;-86
2021/06/02 00:51:03;;;;;;;;;0.00;0.00;;;;;21.05;48.60;100674.28;4970647;28;45479;-86
2021/06/02 00:53:29;;;;;;;;;0.00;0.00;;;;;21.19;48.51;100705.56;4954587;28;45403;-85
2021/06/02 00:56:01;;;;;;;;;0.00;0.00;;;;;21.16;48.26;100703.88;4970727;28;59799;-85
2021/06/02 00:58:30;;;;;;;;;0.50;0.00;;;;;21.17;48.43;100710.03;4991689;28;45388;-85
2021/06/02 01:00:56;;;;;;;;;0.00;0.00;;;;;21.22;49.01;100711.59;4964579;28;45339;-85
2021/06/02 01:03:22;;;;;;;;;0.00;0.00;;;;;21.17;48.66;100702.97;4948019;28;45530;-86
2021/06/02 01:05:49;;;;;;;;;0.00;0.00;;;;;21.02;48.63;100686.69;4980764;28;46539;-86
2021/06/02 01:08:15;;;;;;;;;0.00;0.00;;;;;21.11;48.11;100713.78;4960492;28;45427;-86
2021/06/02 01:10:40;;;;;;;;;0.00;0.00;;;;;20.72;49.01;100635.75;4972413;28;62353;-86
2021/06/02 01:13:06;;;;;;;;;0.00;0.00;;;;;20.62;48.66;100636.06;4965832;28;47745;-86
2021/06/02 01:15:32;;;;;;;;;0.00;0.00;;;;;20.80;48.42;100660.16;4951044;28;48535;-86
2021/06/02 01:17:57;;;;;;;;;0.00;0.00;;;;;21.08;48.66;100709.47;4965013;28;64525;-85
2021/06/02 01:20:22;;;;;;;;;0.00;0.00;;;;;20.96;48.90;100686.06;4953709;28;58147;-85
2021/06/02 01:22:48;;;;;;;;;0.00;0.00;;;;;21.04;48.88;100705.16;4943856;28;45787;-86
2021/06/02 01:25:15;;;;;;;;;0.25;0.00;;;;;20.77;48.77;100652.31;4923805;28;55834;-86
2021/06/02 01:27:41;;;;;;;;;0.00;0.00;;;;;20.76;48.78;100663.78;4960125;28;45890;-85
2021/06/02 01:30:08;;;;;;;;;0.00;0.00;;;;;20.76;49.01;100667.31;4977426;28;45359;-85
2021/06/02 01:32:54;;;;;;;;;0.00;0.00;;;;;20.86;49.06;100693.44;4985465;28;45398;-86
2021/06/02 01:35:22;;;;;;;;;0.00;0.00;;;;;20.84;48.89;100692.63;4961342;28;46486;-86
2021/06/02 01:38:02;;;;;;;;;0.00;0.00;;;;;20.79;49.09;100699.88;4965441;28;45992;-87
2021/06/02 01:40:46;;;;;;;;;0.00;0.00;;;;;20.74;49.27;100692.09;5016617;28;45643;-86
2021/06/02 01:43:45;;;;;;;;;0.00;0.00;;;;;20.72;49.27;100694.81;4996285;27;45549;-86
2021/06/02 01:46:36;;;;;;;;;0.00;0.00;;;;;20.76;49.34;100701.69;4963406;28;45708;-85
2021/06/02 01:49:35;;;;;;;;;0.00;0.00;;;;;20.79;49.15;100700.72;4969321;28;46068;-87
2021/06/02 01:52:34;;;;;;;;;0.75;0.00;;;;;20.82;49.38;100699.78;4968013;28;45331;-87
2021/06/02 01:55:37;;;;;;;;;1.00;0.00;;;;;20.79;49.47;100706.00;4970627;28;45659;-86
2021/06/02 01:58:05;;;;;;;;;0.50;0.00;;;;;20.82;49.32;100694.47;4986366;27;47636;-86
2021/06/02 02:01:08;;;;;;;;;0.00;0.00;;;;;20.81;49.23;100690.09;4958331;28;45544;-86
2021/06/02 02:03:39;;;;;;;;;0.00;0.00;;;;;20.76;49.45;100693.75;5008195;28;45458;-86
2021/06/02 02:06:40;;;;;;;;;0.00;0.00;;;;;20.70;49.74;100704.56;4980296;28;45387;-86
2021/06/02 02:09:29;;;;;;;;;0.00;0.00;;;;;20.62;49.54;100688.94;4867686;29;48425;-85
2021/06/02 02:12:02;;;;;;;;;1.00;0.00;;;;;20.37;49.48;100646.66;4874217;29;45607;-86
2021/06/02 02:14:51;;;;;;;;;0.00;0.00;;;;;20.65;49.76;100698.56;4879531;29;45322;-86
2021/06/02 02:17:55;;;;;;;;;1.25;0.00;;;;;20.61;50.03;100696.97;4854490;28;45834;-87
2021/06/02 02:20:22;;;;;;;;;0.00;0.00;;;;;20.41;49.75;100665.88;4896475;29;45720;-86
2021/06/02 02:23:02;;;;;;;;;0.00;0.00;;;;;20.56;49.92;100693.59;4879439;29;45540;-87
2021/06/02 02:25:41;;;;;;;;;1.00;0.00;;;;;20.33;49.72;100659.09;4871646;28;45517;-86
2021/06/02 02:28:15;;;;;;;;;0.00;0.00;;;;;20.46;49.90;100693.06;4868423;28;45378;-85
2021/06/02 02:31:01;;;;;;;;;0.00;0.00;;;;;20.41;50.11;100692.31;4889109;29;47138;-85
2021/06/02 02:33:43;;;;;;;;;0.00;0.00;;;;;20.33;50.36;100688.16;4873354;29;46113;-84
2021/06/02 02:36:14;;;;;;;;;1.50;0.00;;;;;20.01;50.77;100661.03;4877880;28;45449;-85
2021/06/02 02:39:03;;;;;;;;;1.00;1.00;;;;;20.23;50.80;100692.91;4852911;29;45596;-86
2021/06/02 02:41:45;;;;;;;;;0.00;0.00;;;;;19.97;50.73;100662.00;4875952;28;47542;-86
2021/06/02 02:44:18;;;;;;;;;0.00;0.00;;;;;20.17;50.82;100703.66;4900602;28;45405;-86
2021/06/02 02:46:49;;;;;;;;;1.00;0.00;;;;;20.12;51.10;100705.56;4958746;28;46247;-87
2021/06/02 02:49:52;;;;;;;;;0.00;0.00;;;;;20.09;51.10;100708.34;4959907;28;45471;-86
2021/06/02 02:52:27;;;;;;;;;0.00;0.00;;;;;20.10;51.10;100708.28;4970506;28;48510;-87
2021/06/02 02:55:07;;;;;;;;;0.00;0.00;;;;;20.13;51.15;100702.88;4951495;28;45384;-86
2021/06/02 02:57:50;;;;;;;;;0.00;0.00;;;;;20.08;51.04;100694.25;4961055;28;45434;-87
2021/06/02 03:00:17;;;;;;;;;1.00;0.00;;;;;19.80;50.96;100657.25;4954375;28;45525;-86
2021/06/02 03:03:10;;;;;;;;;0.00;0.00;;;;;19.83;51.29;100667.72;4955249;28;47152;-87
2021/06/02 03:05:39;;;;;;;;;0.25;0.00;;;;;19.95;51.50;100695.50;4864017;28;46025;-87
2021/06/02 03:08:24;;;;;;;;;0.75;0.75;;;;;19.97;51.51;100693.72;4886651;28;45462;-86
2021/06/02 03:11:08;;;;;;;;;0.00;0.00;;;;;19.76;51.14;100667.06;4926407;28;45599;-87
2021/06/02 03:13:39;;;;;;;;;0.00;0.00;;;;;19.87;50.95;100685.19;4882811;28;47619;-87
2021/06/02 03:16:08;;;;;;;;;0.75;0.75;;;;;19.75;51.15;100662.66;4876677;28;45445;-86
2021/06/02 03:18:36;;;;;;;;;2.00;0.25;;;;;19.98;51.65;100698.06;4848163;28;45540;-86
2021/06/02 03:21:13;;;;;;;;;0.00;0.00;;;;;19.71;51.49;100664.56;4881172;28;45507;-86
2021/06/02 03:23:59;;;;;;;;;0.75;0.75;;;;;19.99;51.65;100711.22;4894415;28;45430;-86
2021/06/02 03:26:32;;;;;;;;;0.00;0.00;;;;;19.68;51.40;100656.72;4889077;28;45987;-86
2021/06/02 03:29:14;;;;;;;;;0.00;0.00;;;;;19.41;51.34;100614.41;4878217;28;45506;-86
2021/06/02 03:31:51;;;;;;;;;0.00;0.00;;;;;20.00;51.31;100704.19;4873564;28;45486;-86
2021/06/02 03:34:20;;;;;;;;;0.00;0.00;;;;;19.84;51.59;100686.16;4892234;28;45438;-86
2021/06/02 03:36:59;;;;;;;;;0.00;0.00;;;;;19.14;51.82;100555.44;4878140;28;45549;-86
2021/06/02 03:40:02;;;;;;;;;0.00;0.00;;;;;20.04;51.60;100700.56;4881454;28;45370;-86
2021/06/02 03:42:47;;;;;;;;;0.00;0.00;;;;;19.90;51.71;100671.88;4927795;28;45579;-85
2021/06/02 03:45:37;;;;;;;;;0.00;0.00;;;;;20.06;51.57;100709.28;4953434;28;45598;-86
2021/06/02 03:48:09;;;;;;;;;0.00;0.00;;;;;20.08;51.92;100693.38;4963067;28;45569;-87
2021/06/02 03:50:56;;;;;;;;;0.25;0.25;;;;;20.07;51.85;100691.66;4971412;28;45470;-86
2021/06/02 03:53:24;;;;;;;;;0.00;0.00;;;;;20.05;51.81;100691.69;4964031;28;45483;-87
2021/06/02 03:55:57;;;;;;;;;0.00;0.00;;;;;20.06;51.59;100701.34;4959673;28;46536;-87
2021/06/02 03:58:51;;;;;;;;;0.00;0.00;;;;;20.07;51.90;100697.81;4972803;28;45458;-87
2021/06/02 04:01:46;;;;;;;;;0.00;0.00;;;;;19.96;51.71;100684.91;4972249;28;45390;-86
2021/06/02 04:04:23;;;;;;;;;0.00;0.00;;;;;20.00;51.75;100699.78;4974185;28;45509;-86
2021/06/02 04:07:34;;;;;;;;;1.00;1.00;;;;;19.80;51.97;100671.31;4977534;28;45937;-86
2021/06/02 04:10:07;;;;;;;;;0.00;0.00;;;;;19.92;51.76;100692.97;4950741;28;45442;-86
2021/06/02 04:12:54;;;;;;;;;0.25;0.25;;;;;19.94;52.19;100704.38;4932356;28;45334;-86
2021/06/02 04:15:21;;;;;;;;;0.00;0.00;;;;;19.54;51.94;100641.28;4967108;28;45540;-86
2021/06/02 04:17:49;;;;;;;;;0.00;0.00;;;;;19.90;51.90;100692.16;4968703;28;48179;-86
2021/06/02 04:20:15;;;;;;;;;0.00;0.00;;;;;19.63;52.15;100650.69;4950631;28;45543;-86
2021/06/02 04:22:41;;;;;;;;;0.00;0.00;;;;;19.89;51.81;100704.50;4972081;28;45305;-86
2021/06/02 04:25:07;;;;;;;;;0.00;0.00;;;;;19.63;51.93;100653.34;4938774;28;45552;-86
2021/06/02 04:27:33;;;;;;;;;2.00;0.25;;;;;19.50;52.13;100635.25;4956301;28;47527;-86
2021/06/02 04:30:02;;;;;;;;;0.00;0.00;;;;;19.41;51.95;100616.19;4974561;28;45410;-87
2021/06/02 04:32:27;;;;;;;;;0.00;0.00;;;;;19.56;52.25;100652.69;4947506;28;45596;-85
2021/06/02 04:34:53;;;;;;;;;1.25;0.00;;;;;19.66;52.30;100670.88;4942238;28;45433;-86
2021/06/02 04:37:18;;;;;;;;;0.25;0.25;;;;;19.42;52.12;100639.03;4983286;28;71055;-86
2021/06/02 04:39:43;;;;;;;;;0.00;0.00;;;;;19.27;52.08;100603.41;4968933;28;58033;-85
2021/06/02 04:42:10;;;;;;;;;5.75;0.00;;;;;19.42;52.13;100631.97;4971966;28;45713;-85
2021/06/02 04:44:35;;;;;;;;;0.00;0.00;;;;;19.36;52.20;100638.28;4968043;28;45485;-86
2021/06/02 04:47:02;;;;;;;;;0.00;0.00;;;;;19.35;52.10;100635.69;4999840;28;46506;-86
2021/06/02 04:49:52;;;;;;;;;2.00;1.00;;;;;19.85;52.22;100716.09;4983182;28;45445;-86
2021/06/02 04:52:48;;;;;;;;;0.00;0.00;;;;;19.82;52.32;100708.25;5022669;28;45588;-86
2021/06/02 04:55:37;;;;;;;;;0.00;0.00;;;;;19.18;52.07;100601.91;4971980;28;45627;-86
2021/06/02 04:58:05;;;;;;;;;0.00;0.00;;;;;19.83;52.37;100709.97;4958865;28;47185;-84
2021/06/02 05:01:08;;;;;;;;;0.00;0.00;;;;;19.79;52.62;100708.34;4970462;28;45404;-87
2021/06/02 05:03:39;;;;;;;;;0.25;0.25;;;;;19.78;52.76;100719.81;4990731;28;45693;-85
2021/06/02 05:06:19;;;;;;;;;0.00;0.00;;;;;19.82;52.51;100713.53;4965700;28;45597;-86
2021/06/02 05:09:12;;;;;;;;;1.00;1.00;;;;;19.89;53.05;100712.44;4961581;28;46810;-85
2021/06/02 05:11:47;;;;;;;;;0.00;0.00;;;;;19.94;52.40;100717.56;4962666;28;45459;-85
2021/06/02 05:14:43;;;;;;;;;2.00;0.00;;;;;19.95;52.73;100714.00;4971518;28;45543;-85
2021/06/02 05:17:28;;;;;;;;;0.00;0.00;;;;;20.03;52.93;100725.22;4976621;27;45669;-86
2021/06/02 05:20:24;;;;;;;;;0.00;0.00;;;;;20.14;52.68;100730.19;4984064;27;50205;-86
2021/06/02 05:23:19;;;;;;;;;0.00;0.00;;;;;20.30;52.49;100727.06;4968201;28;45605;-86
2021/06/02 05:26:15;;;;;;;;;0.00;0.00;;;;;20.46;52.66;100720.34;4984323;27;45510;-85
2021/06/02 05:29:01;;;;;;;;;1.25;0.00;;;;;20.60;52.09;100730.47;4978872;27;45425;-85
2021/06/02 05:31:49;;;;;;;;;0.00;0.00;;;;;20.73;51.94;100736.19;4959379;28;46660;-86
2021/06/02 05:34:33;;;;;;;;;0.00;0.00;;;;;20.87;51.51;100750.72;4953936;28;46421;-87
2021/06/02 05:37:31;;;;;;;;;0.50;0.50;;;;;20.95;51.79;100735.47;4970920;28;45386;-86
2021/06/02 05:40:08;;;;;;;;;0.00;0.00;;;;;21.12;51.91;100744.59;4965894;28;45528;-84
2021/06/02 05:42:54;;;;;;;;;0.50;0.00;;;;;21.14;52.07;100743.63;4944206;28;45814;-87
2021/06/02 05:45:39;;;;;;;;;0.00;0.00;;;;;21.13;52.04;100747.19;4950756;28;45419;-85
2021/06/02 05:48:39;;;;;;;;;0.00;0.00;;;;;21.14;51.97;100754.19;4952374;28;45517;-85
2021/06/02 05:51:27;;;;;;;;;0.00;0.00;;;;;21.08;52.12;100725.34;4930441;28;45586;-85
2021/06/02 05:54:33;;;;;;;;;0.00;0.00;;;;;21.27;51.96;100759.94;4932055;28;47459;-84
2021/06/02 05:57:25;;;;;;;;;0.00;0.00;;;;;21.34;51.78;100749.97;4927471;28;46125;-85
2021/06/02 06:00:17;;;;;;;;;0.00;0.00;;;;;21.38;51.95;100756.03;4952024;28;45375;-86
2021/06/02 06:02:51;;;;;;;;;0.00;0.00;;;;;21.35;52.10;100753.50;4941154;28;45567;-85
2021/06/02 06:05:37;;;;;;;;;0.00;0.00;;;;;21.41;52.15;100763.88;4948460;28;45638;-84
2021/06/02 06:08:36;;;;;;;;;0.00;0.00;;;;;21.30;52.10;100744.84;4927253;28;46042;-85
2021/06/02 06:11:16;;;;;;;;;1.00;0.00;;;;;21.41;52.20;100763.88;5007898;28;45339;-84
2021/06/02 06:14:18;;;;;;;;;0.00;0.00;;;;;21.47;52.32;100762.78;4975924;28;45597;-85
2021/06/02 06:17:09;;;;;;;;;2.00;0.00;;;;;21.58;52.15;100763.25;4934724;28;48236;-84
2021/06/02 06:20:06;;;;;;;;;1.00;0.00;;;;;21.60;52.56;100765.84;4888363;29;45536;-84
2021/06/02 06:22:59;;;;;;;;;0.00;0.00;;;;;21.49;52.32;100726.50;4872357;28;45613;-85
2021/06/02 06:25:26;;;;;;;;;1.00;1.00;;;;;21.48;52.12;100711.53;4820445;28;45845;-85
2021/06/02 06:28:01;;;;;;;;;0.00;0.00;;;;;21.60;51.81;100720.81;4809221;29;45413;-85
2021/06/02 06:30:30;;;;;;;;;0.00;0.00;;;;;21.81;52.40;100736.84;4896966;28;45371;-84
2021/06/02 06:32:56;;;;;;;;;1.25;0.75;;;;;21.77;52.13;100736.94;4812021;28;45917;-85
2021/06/02 06:35:22;;;;;;;;;0.00;0.00;;;;;21.93;52.32;100756.69;4814628;29;45620;-86
2021/06/02 06:37:51;;;;;;;;;0.00;0.00;;;;;21.79;52.64;100720.13;4803815;29;46269;-85
2021/06/02 06:40:23;;;;;;;;;1.00;1.00;;;;;21.55;52.52;100678.59;4838537;28;45370;-85
2021/06/02 06:42:53;;;;;;;;;0.00;0.00;;;;;21.68;52.77;100705.47;4844694;28;45554;-86
2021/06/02 06:45:21;;;;;;;;;0.00;0.00;;;;;21.69;52.88;100704.56;4808715;29;45516;-85
2021/06/02 06:47:47;;;;;;;;;0.00;0.00;;;;;22.02;52.95;100759.00;4788443;29;47219;-85
2021/06/02 06:50:13;;;;;;;;;0.00;0.00;;;;;21.85;53.41;100749.91;4818180;28;45495;-85
2021/06/02 06:52:39;;;;;;;;;1.00;1.00;;;;;21.99;53.51;100756.47;4817546;29;45522;-86
2021/06/02 06:55:06;;;;;;;;;0.00;0.00;;;;;21.86;53.10;100733.06;4868955;28;45339;-86
2021/06/02 06:57:31;;;;;;;;;1.00;1.00;;;;;21.22;52.64;100624.25;4853528;28;47502;-85
2021/06/02 06:59:57;;;;;;;;;2.00;0.25;;;;;21.94;53.60;100761.94;4964436;28;45327;-85
2021/06/02 07:02:22;;;;;;;;;0.00;0.00;;;;;22.02;53.53;100762.47;4981730;28;48130;-85
2021/06/02 07:04:48;;;;;;;;;2.00;0.25;;;;;21.48;53.23;100670.06;4948678;28;45551;-84
2021/06/02 07:07:13;;;;;;;;;2.00;0.00;;;;;21.81;53.27;100732.41;4956278;28;45452;-85
2021/06/02 07:09:38;;;;;;;;;0.00;0.00;;;;;22.06;53.39;100770.31;4951306;28;67494;-84
2021/06/02 07:12:04;;;;;;;;;0.00;0.00;;;;;21.68;53.33;100699.34;4961279;28;45626;-89
2021/06/02 07:14:30;;;;;;;;;1.00;0.00;;;;;22.19;53.26;100770.69;4942661;28;45580;-87
2021/06/02 07:16:57;;;;;;;;;0.25;0.00;;;;;22.26;53.12;100773.03;4950334;28;48220;-89
2021/06/02 07:19:22;;;;;;;;;0.00;0.00;;;;;21.96;53.46;100733.56;4969764;28;45606;-88
2021/06/02 07:21:48;;;;;;;;;0.00;0.00;;;;;22.30;53.38;100779.09;4960217;28;45523;-89
2021/06/02 07:24:19;;;;;;;;;1.50;0.50;;;;;21.78;53.06;100674.25;4983178;28;45510;-89
2021/06/02 07:26:45;;;;;;;;;0.00;0.00;;;;;21.65;53.33;100644.66;4955874;28;47260;-89
2021/06/02 07:29:10;;;;;;;;;0.75;0.00;;;;;22.23;53.49;100738.69;4940556;28;45469;-89
2021/06/02 07:31:35;;;;;;;;;1.50;0.00;;;;;22.14;53.26;100725.81;4939047;28;45729;-89
2021/06/02 07:34:01;;;;;;;;;0.50;0.25;;;;;22.60;53.19;100788.56;4943847;28;45465;-89
2021/06/02 07:36:27;;;;;;;;;3.00;0.00;;;;;22.66;53.48;100790.94;4950248;28;47261;-89
2021/06/02 07:38:52;;;;;;;;;0.00;0.00;;;;;22.43;53.37;100725.53;4935846;28;67142;-90
2021/06/02 07:41:17;;;;;;;;;1.00;0.50;;;;;22.76;53.34;100765.72;4958814;28;48792;-88
2021/06/02 07:43:43;;;;;;;;;1.00;1.00;;;;;22.41;53.34;100704.41;4954179;28;45690;-87
2021/06/02 07:46:08;;;;;;;;;1.00;1.00;;;;;22.83;53.16;100773.44;4993100;28;58709;-90
2021/06/02 07:48:33;;;;;;;;;0.00;0.00;;;;;22.75;53.85;100740.13;4985115;28;52789;-83
2021/06/02 07:50:59;;;;;;;;;3.00;1.00;;;;;22.71;53.03;100725.28;4980151;28;60634;-85
2021/06/02 07:53:25;;;;;;;;;2.00;0.25;;;;;23.08;53.55;100783.00;4948429;28;48590;-83
2021/06/02 07:55:50;;;;;;;;;0.00;0.00;;;;;22.90;53.82;100732.44;4955793;28;46350;-86
2021/06/02 07:58:15;;;;;;;;;1.00;0.00;;;;;22.78;53.27;100710.81;4993870;28;50995;-86
2021/06/02 08:00:41;;;;;;;;;0.00;0.00;;;;;22.87;53.28;100714.88;4954285;28;56823;-84
2021/06/02 08:03:06;;;;;;;;;0.00;0.00;;;;;23.16;53.00;100765.78;4990797;27;49374;-85
2021/06/02 08:05:31;;;;;;;;;0.00;0.00;;;;;22.92;53.19;100714.66;4993218;28;58936;-84
2021/06/02 08:07:57;;;;;;;;;1.00;0.25;;;;;23.16;52.94;100752.53;4992607;28;64009;-90
2021/06/02 08:10:22;;;;;;;;;0.00;0.00;;;;;22.81;52.61;100688.59;4978547;28;58039;-91
2021/06/02 08:12:48;;;;;;;;;2.75;0.25;;;;;23.47;52.76;100784.00;4941486;28;45496;-83
2021/06/02 08:15:15;;;;;;;;;0.00;0.00;;;;;23.38;53.11;100775.53;4972829;28;46052;-92
2021/06/02 08:17:40;;;;;;;;;0.00;0.00;;;;;23.23;52.66;100726.56;4957553;28;46005;-88
2021/06/02 08:20:07;;;;;;;;;0.00;0.00;;;;;23.70;52.53;100809.50;4977515;28;45531;-84
2021/06/02 08:22:33;;;;;;;;;0.75;0.75;;;;;23.51;52.74;100773.16;4987035;28;45480;-85
2021/06/02 08:24:59;;;;;;;;;0.50;0.50;;;;;23.63;52.55;100779.72;4954808;28;45679;-85
2021/06/02 08:27:24;;;;;;;;;0.00;0.00;;;;;23.11;52.46;100674.03;4946949;28;45508;-86
2021/06/02 08:29:54;;;;;;;;;1.00;1.00;;;;;23.94;52.70;100805.81;4961974;28;58336;-85
2021/06/02 08:32:20;;;;;;;;;1.00;0.00;;;;;23.96;52.54;100795.94;4975307;28;45522;-86
2021/06/02 08:34:45;;;;;;;;;1.00;1.00;;;;;23.81;52.16;100760.31;5022657;28;48344;-84
2021/06/02 08:37:13;;;;;;;;;1.25;1.00;;;;;23.84;51.99;100758.38;4955307;28;49704;-84
2021/06/02 08:39:38;;;;;;;;;0.00;0.00;;;;;24.04;52.29;100791.13;4972227;28;45457;-86
2021/06/02 08:42:04;;;;;;;;;0.00;0.00;;;;;23.78;52.47;100740.06;4990811;28;47098;-85
2021/06/02 08:44:29;;;;;;;;;0.00;0.00;;;;;24.21;52.33;100808.97;4970447;27;46311;-88
2021/06/02 08:46:55;;;;;;;;;0.00;0.00;;;;;23.73;52.07;100719.03;4953960;28;45513;-86
2021/06/02 08:49:21;;;;;;;;;2.00;1.00;;;;;24.00;52.01;100742.56;4963086;28;52280;-88
2021/06/02 08:51:46;;;;;;;;;0.75;0.75;;;;;24.20;51.58;100759.41;4965361;28;45633;-88
2021/06/02 08:54:12;;;;;;;;;0.00;0.00;;;;;24.37;51.36;100778.97;4951146;28;68989;-87
2021/06/02 08:56:42;;;;;;;;;0.00;0.00;;;;;24.49;51.65;100796.13;4930893;28;45776;-87
2021/06/02 08:59:07;;;;;;;;;0.00;0.00;;;;;24.42;51.48;100776.94;4948104;28;45558;-87
2021/06/02 09:01:33;;;;;;;;;0.00;0.00;;;;;24.84;51.37;100825.47;4955425;28;45652;-85
2021/06/02 09:04:03;;;;;;;;;0.00;0.00;;;;;24.92;51.31;100822.41;4984919;28;45470;-88
2021/06/02 09:06:28;;;;;;;;;2.00;0.00;;;;;24.51;50.48;100749.91;4950118;28;45889;-87
2021/06/02 09:08:54;;;;;;;;;2.00;0.00;;;;;24.36;50.63;100716.06;4938117;28;51015;-89
2021/06/02 09:11:20;;;;;;;;;0.50;0.50;;;;;24.82;50.63;100778.53;4982944;28;45358;-90
2021/06/02 09:13:46;;;;;;;;;0.75;0.25;;;;;24.94;50.47;100801.91;4969222;28;47102;-89
2021/06/02 09:16:27;;;;;;;;;0.00;0.00;;;;;24.98;50.49;100790.16;4952758;28;45435;-88
2021/06/02 09:19:04;;;;;;;;;0.50;0.00;;;;;25.21;50.45;100814.75;4962752;28;45541;-87
2021/06/02 09:21:30;;;;;;;;;0.00;0.00;;;;;25.30;50.12;100818.72;4941993;28;45634;-87
2021/06/02 09:23:55;;;;;;;;;1.00;1.00;;;;;24.75;50.26;100709.66;4944480;28;47169;-86
2021/06/02 09:26:24;;;;;;;;;0.00;0.00;;;;;25.08;49.83;100766.56;4967612;28;45548;-88
2021/06/02 09:28:50;;;;;;;;;3.00;1.25;;;;;25.47;49.76;100812.50;4956448;28;45575;-88
2021/06/02 09:31:24;;;;;;;;;0.00;0.00;;;;;25.52;49.80;100815.78;4970447;28;45674;-88
2021/06/02 09:33:49;;;;;;;;;0.00;0.00;;;;;25.22;49.30;100762.31;4978094;27;47695;-88
2021/06/02 09:36:15;;;;;;;;;0.00;0.00;;;;;25.72;49.63;100826.34;4958927;28;45458;-89
2021/06/02 09:38:40;;;;;;;;;1.00;0.50;;;;;25.29;49.33;100753.06;4984134;28;45495;-88
2021/06/02 09:41:06;;;;;;;;;0.00;0.00;;;;;25.30;49.24;100752.13;4955284;28;45508;-88
2021/06/02 09:43:32;;;;;;;;;0.50;0.25;;;;;25.29;49.02;100745.94;4938024;28;57631;-87
2021/06/02 09:46:09;;;;;;;;;0.00;0.00;;;;;25.45;49.16;100755.75;4950055;28;45608;-88
2021/06/02 09:48:46;;;;;;;;;0.00;0.00;;;;;25.94;49.19;100820.72;4959682;28;45603;-88
2021/06/02 09:51:34;;;;;;;;;0.00;0.00;;;;;26.04;48.93;100819.25;4974534;27;46280;-88
2021/06/02 09:54:01;;;;;;;;;0.00;0.00;;;;;26.14;48.68;100827.59;4953068;28;47277;-90
2021/06/02 09:56:42;;;;;;;;;0.00;0.00;;;;;26.22;48.87;100821.81;4940173;28;45466;-88
2021/06/02 09:59:09;;;;;;;;;1.00;0.75;;;;;26.15;48.62;100799.97;4971638;28;45519;-89
2021/06/02 10:01:57;;;;;;;;;1.25;0.00;;;;;26.36;48.76;100814.84;4957252;28;45649;-87
2021/06/02 10:04:35;;;;;;;;;0.00;0.00;;;;;26.44;48.47;100825.97;4974797;28;47407;-90
2021/06/02 10:07:02;;;;;;;;;1.75;1.00;;;;;26.24;48.11;100785.22;5014427;27;45434;-86
2021/06/02 10:09:28;;;;;;;;;1.00;1.00;;;;;26.41;47.94;100823.47;4959028;28;45403;-86
2021/06/02 10:12:00;;;;;;;;;0.00;0.00;;;;;25.97;47.99;100777.00;4973457;28;45569;-88
2021/06/02 10:14:26;;;;;;;;;0.00;0.00;;;;;25.77;48.12;100750.50;4947094;28;45510;-90
2021/06/02 10:16:52;;;;;;;;;0.00;0.00;;;;;26.00;48.37;100804.34;4930276;28;45460;-86
2021/06/02 10:19:34;;;;;;;;;0.50;0.50;;;;;26.02;48.38;100810.47;4951072;28;46107;-90
2021/06/02 10:22:00;;;;;;;;;0.00;0.00;;;;;25.86;48.65;100788.25;4958461;28;45533;-92
2021/06/02 10:24:25;;;;;;;;;0.00;0.00;;;;;25.66;48.75;100744.91;4973443;28;47498;-90
2021/06/02 10:26:50;;;;;;;;;0.25;0.00;;;;;26.03;49.40;100801.50;4941188;28;55601;-90
2021/06/02 10:29:16;;;;;;;;;0.25;0.25;;;;;26.05;48.81;100796.97;4969304;28;62668;-89
2021/06/02 10:31:41;;;;;;;;;0.75;0.00;;;;;26.14;48.41;100797.38;4951435;28;57936;-91
2021/06/02 10:34:06;;;;;;;;;0.00;0.00;;;;;25.93;48.19;100752.31;4962725;28;58816;-95
2021/06/02 10:36:32;;;;;;;;;0.25;0.25;;;;;26.61;48.15;100819.63;4953791;28;45381;-88
2021/06/02 10:38:58;;;;;;;;;0.00;0.00;;;;;26.89;48.19;100835.88;4953409;28;45310;-89
2021/06/02 10:41:34;;;;;;;;;0.50;0.00;;;;;27.00;48.06;100844.13;4980484;28;45607;-87
2021/06/02 10:44:12;;;;;;;;;0.25;0.25;;;;;27.08;48.07;100838.34;4973619;28;47385;-89
2021/06/02 10:46:42;;;;;;;;;0.25;0.25;;;;;26.40;47.75;100725.69;4978744;28;46013;-90
2021/06/02 10:49:07;;;;;;;;;0.00;0.00;;;;;26.71;47.49;100776.41;4964915;28;45407;-89
2021/06/02 10:51:33;;;;;;;;;0.00;0.00;;;;;27.05;47.25;100836.72;4967222;28;45302;-88
2021/06/02 10:54:20;;;;;;;;;1.00;1.00;;;;;27.11;46.96;100837.28;4994867;28;45345;-92
2021/06/02 10:56:54;;;;;;;;;0.00;0.00;;;;;27.15;46.54;100849.50;4958370;28;45488;-89
2021/06/02 10:59:27;;;;;;;;;0.00;0.00;;;;;27.22;46.10;100852.69;4975354;28;45328;-89
2021/06/02 11:02:11;;;;;;;;;0.00;0.00;;;;;27.28;46.19;100861.16;4958978;28;45466;-86
2021/06/02 11:04:41;;;;;;;;;1.00;0.00;;;;;27.07;46.58;100802.72;4970388;28;45496;-85
2021/06/02 11:07:16;;;;;;;;;0.75;0.75;;;;;27.47;46.05;100861.88;4967301;28;45450;-86
2021/06/02 11:10:01;;;;;;;;;0.00;0.00;;;;;27.25;46.36;100807.91;4974858;28;45425;-87
2021/06/02 11:12:27;;;;;;;;;0.00;0.00;;;;;27.46;46.29;100839.63;4954440;28;45395;-89
2021/06/02 11:14:52;;;;;;;;;1.50;0.00;;;;;27.27;46.93;100816.69;4953171;28;46371;-90
2021/06/02 11:17:18;;;;;;;;;1.00;0.00;;;;;27.29;46.91;100860.19;4963395;28;45554;-88
2021/06/02 11:19:49;;;;;;;;;2.00;0.00;;;;;27.05;46.48;100836.72;4943598;28;45574;-89
2021/06/02 11:22:17;;;;;;;;;2.00;0.75;;;;;26.75;46.16;100789.47;4970214;28;45582;-88
2021/06/02 11:24:43;;;;;;;;;0.00;0.00;;;;;26.98;46.13;100827.31;4966468;28;47654;-93
2021/06/02 11:27:15;;;;;;;;;1.00;0.00;;;;;27.24;46.30;100867.66;4939833;28;45528;-92
2021/06/02 11:29:49;;;;;;;;;0.00;0.00;;;;;27.17;46.24;100856.47;4972357;28;45395;-89
2021/06/02 11:32:21;;;;;;;;;0.00;0.00;;;;;27.07;46.28;100816.09;4976101;28;45423;-88
2021/06/02 11:35:08;;;;;;;;;0.25;0.25;;;;;27.43;46.74;100861.19;4955056;28;47499;-89
2021/06/02 11:37:34;;;;;;;;;0.00;0.00;;;;;27.52;46.20;100860.63;4971174;28;45364;-89
2021/06/02 11:40:05;;;;;;;;;0.75;0.75;;;;;27.50;46.35;100848.31;4985496;28;45444;-93
2021/06/02 11:42:42;;;;;;;;;0.50;0.50;;;;;27.35;46.02;100824.25;4991339;28;44963;-88
2021/06/02 11:45:10;;;;;;;;;0.75;0.75;;;;;27.49;46.22;100863.47;4986960;27;47625;-95
2021/06/02 11:47:37;;;;;;;;;0.75;0.00;;;;;26.68;46.15;100750.75;4970026;28;45532;-93
2021/06/02 11:50:05;;;;;;;;;0.00;0.00;;;;;27.22;46.53;100869.53;4970859;28;45461;-87
2021/06/02 11:52:31;;;;;;;;;0.75;0.75;;;;;26.79;46.48;100819.50;4984155;28;45649;-89
2021/06/02 11:55:01;;;;;;;;;0.75;0.75;;;;;26.60;46.43;100811.72;4962815;28;56605;-86